Time;durP1;ratioP1;P1;durP2;ratioP2;P2;SDS_P1;SDS_P2;PMS_P1;PMS_P2;Temp;Humidity;BMP_temperature;BMP_pressure;BME280_temperature;BME280_humidity;BME280_pressure;Samples;Min_cycle;Max_cycle;Signal;HPM_P1;HPM_P2
2023/12/07 00:00:05;;;;;;;22.47;16.73;;;2.10;93.40;;;1.42;98.51;98152.63;5082915;28;20930;-69
2023/12/07 00:02:32;;;;;;;24.73;16.13;;;2.20;93.70;;;1.46;98.45;98163.81;5082709;28;20490;-69
2023/12/07 00:05:01;;;;;;;25.27;16.50;;;2.20;93.80;;;1.37;98.36;98160.25;5071979;28;20544;-70
2023/12/07 00:07:29;;;;;;;27.27;17.63;;;2.20;93.70;;;1.44;98.11;98145.31;5091574;28;20477;-70
2023/12/07 00:09:56;;;;;;;28.47;17.40;;;2.20;94.20;;;1.42;97.33;98157.94;5077333;28;20461;-69
2023/12/07 00:12:23;;;;;;;23.83;16.07;;;2.20;93.60;;;1.44;97.80;98160.44;5081601;28;20517;-69
2023/12/07 00:14:51;;;;;;;22.60;16.27;;;2.20;93.30;;;1.42;98.03;98155.28;5085364;28;20461;-69
2023/12/07 00:17:18;;;;;;;29.80;16.77;;;2.20;93.00;;;1.51;96.67;98154.34;5079851;28;20472;-69
2023/12/07 00:19:46;;;;;;;22.37;16.80;;;2.20;93.30;;;1.55;97.28;98160.19;5074184;28;20556;-69
2023/12/07 00:22:15;;;;;;;21.03;15.73;;;2.20;93.50;;;1.56;97.16;98159.22;5078908;28;20452;-69
2023/12/07 00:24:42;;;;;;;29.27;16.50;;;2.30;93.30;;;1.55;97.02;98165.53;5083052;28;20528;-70
2023/12/07 00:27:10;;;;;;;22.90;16.93;;;2.30;92.90;;;1.41;97.68;98159.75;5084949;28;20571;-69
2023/12/07 00:29:38;;;;;;;24.87;16.97;;;2.30;92.90;;;1.31;98.09;98169.66;5084273;28;20848;-70
2023/12/07 00:32:06;;;;;;;24.33;15.50;;;2.20;92.70;;;1.46;98.25;98166.47;5084138;28;20440;-70
2023/12/07 00:34:33;;;;;;;25.90;16.20;;;2.20;93.00;;;1.30;98.09;98165.34;5080849;28;20461;-70
2023/12/07 00:37:00;;;;;;;23.20;15.90;;;2.20;93.00;;;1.31;98.50;98172.34;5079543;28;20875;-70
2023/12/07 00:39:29;;;;;;;22.37;16.27;;;2.10;93.30;;;1.34;97.58;98169.34;5072896;28;20479;-69
2023/12/07 00:41:57;;;;;;;22.93;16.90;;;2.10;93.30;;;1.39;97.74;98177.72;5079951;28;21172;-69
2023/12/07 00:44:25;;;;;;;26.70;15.80;;;2.10;93.30;;;1.30;97.89;98170.66;5096294;28;20980;-70
2023/12/07 00:46:52;;;;;;;24.23;16.27;;;2.20;93.10;;;1.31;98.49;98180.31;5082157;28;20481;-69
2023/12/07 00:49:19;;;;;;;21.40;14.90;;;2.10;93.10;;;1.41;98.00;98178.41;5083329;28;20459;-70
2023/12/07 00:51:47;;;;;;;19.53;14.70;;;2.10;93.70;;;1.37;97.48;98187.69;5080269;28;20453;-70
2023/12/07 00:54:14;;;;;;;26.13;15.93;;;2.20;93.40;;;1.45;97.57;98188.75;5084912;28;20489;-70
2023/12/07 00:56:44;;;;;;;20.70;14.33;;;2.20;93.30;;;1.37;97.83;98187.69;5073614;28;20467;-70
2023/12/07 00:59:11;;;;;;;26.90;16.77;;;2.20;93.20;;;1.48;97.32;98194.59;5082051;28;20468;-70
2023/12/07 01:01:39;;;;;;;21.43;14.83;;;2.20;93.20;;;1.34;97.62;98193.31;5081570;28;20797;-72
2023/12/07 01:04:07;;;;;;;21.50;15.00;;;2.20;92.70;;;1.46;97.02;98201.91;5084085;28;20438;-70
2023/12/07 01:06:34;;;;;;;21.53;15.77;;;2.20;93.10;;;1.48;97.75;98196.44;5076905;28;20472;-72
2023/12/07 01:09:03;;;;;;;20.47;14.37;;;2.20;93.20;;;1.50;97.45;98197.13;5081147;28;20453;-70
2023/12/07 01:11:31;;;;;;;21.07;14.63;;;2.20;93.00;;;1.41;97.56;98205.03;5094743;28;20884;-71
2023/12/07 01:14:00;;;;;;;22.40;16.13;;;2.20;92.80;;;1.51;97.74;98210.25;5081574;28;20454;-71
2023/12/07 01:16:27;;;;;;;24.67;15.53;;;2.20;93.30;;;1.42;97.44;98206.69;5102457;28;20514;-72
2023/12/07 01:18:55;;;;;;;20.80;15.53;;;2.30;93.20;;;1.65;96.52;98206.25;5084503;28;20824;-70
2023/12/07 01:21:22;;;;;;;22.60;15.87;;;2.40;93.00;;;1.60;96.35;98213.88;5081331;28;20458;-70
2023/12/07 01:23:51;;;;;;;24.53;16.70;;;2.40;92.20;;;1.52;97.25;98211.97;5086871;28;20461;-69
2023/12/07 01:26:18;;;;;;;22.10;14.27;;;2.40;92.00;;;1.53;97.67;98223.44;5081380;28;20437;-70
2023/12/07 01:28:45;;;;;;;25.63;16.17;;;2.30;92.40;;;1.47;96.93;98202.75;5083527;28;20467;-70
2023/12/07 01:31:14;;;;;;;20.50;15.40;;;2.40;92.70;;;1.57;97.19;98224.81;5091394;28;20545;-69
2023/12/07 01:33:41;;;;;;;22.70;14.67;;;2.30;92.60;;;1.51;97.25;98228.91;5077460;28;20502;-69
2023/12/07 01:36:09;;;;;;;21.93;14.83;;;2.30;92.50;;;1.54;97.18;98235.75;5081793;28;20450;-68
2023/12/07 01:38:37;;;;;;;22.43;14.83;;;2.30;92.50;;;1.52;97.34;98221.78;5082592;28;20457;-70
2023/12/07 01:41:04;;;;;;;20.47;14.63;;;2.30;92.70;;;1.54;97.24;98233.97;5092788;28;20967;-69
2023/12/07 01:43:32;;;;;;;25.90;16.73;;;2.30;92.80;;;1.58;96.21;98239.78;5083783;28;20459;-69
2023/12/07 01:46:00;;;;;;;22.10;15.00;;;2.30;93.10;;;1.57;96.36;98234.63;5081142;28;20518;-71
2023/12/07 01:48:30;;;;;;;22.53;15.60;;;2.30;92.70;;;1.47;96.73;98227.53;5082755;28;20805;-70
2023/12/07 01:50:59;;;;;;;23.40;15.80;;;2.20;92.60;;;1.61;96.28;98244.84;5084584;28;20449;-70
2023/12/07 01:53:28;;;;;;;22.20;15.20;;;2.30;92.90;;;1.64;96.42;98239.19;5082768;28;20469;-70
2023/12/07 01:55:55;;;;;;;19.30;14.10;;;2.30;92.70;;;1.66;96.15;98250.53;5084298;28;20997;-70
2023/12/07 01:58:23;;;;;;;25.10;15.80;;;2.30;92.70;;;1.70;96.68;98251.91;5080865;28;20453;-70
2023/12/07 02:00:51;;;;;;;20.23;14.80;;;2.30;92.80;;;1.73;95.44;98255.25;5076573;28;20469;-69
2023/12/07 02:03:20;;;;;;;22.97;15.17;;;2.40;92.80;;;1.60;95.47;98256.47;5079796;28;20487;-71
2023/12/07 02:05:49;;;;;;;23.17;15.27;;;2.30;92.40;;;1.60;95.65;98240.50;5077996;28;20539;-70
2023/12/07 02:08:18;;;;;;;22.90;15.70;;;2.40;92.50;;;1.66;95.71;98247.88;5083498;28;20459;-70
2023/12/07 02:10:45;;;;;;;23.33;14.97;;;2.40;92.40;;;1.72;96.00;98248.25;5081442;28;21012;-72
2023/12/07 02:13:13;;;;;;;20.07;14.70;;;2.40;92.10;;;1.61;96.10;98246.66;5076087;28;20454;-70
2023/12/07 02:15:40;;;;;;;23.80;14.53;;;2.30;92.10;;;1.55;96.00;98253.41;5081750;28;20470;-69
2023/12/07 02:18:16;;;;;;;19.80;13.83;;;2.30;92.10;;;1.63;96.11;98250.84;5081077;28;20447;-69
2023/12/07 02:20:52;;;;;;;19.20;13.97;;;2.30;92.70;;;1.55;95.05;98237.44;5081888;28;20568;-69
2023/12/07 02:23:20;;;;;;;20.40;15.37;;;2.30;92.30;;;1.67;95.33;98248.72;5084958;28;20455;-70
2023/12/07 02:25:53;;;;;;;19.37;13.97;;;2.40;92.20;;;1.64;95.27;98257.84;5084141;28;20448;-69
2023/12/07 02:28:21;;;;;;;19.23;14.00;;;2.30;91.90;;;1.70;95.20;98262.56;5081019;28;20467;-69
2023/12/07 02:30:48;;;;;;;21.33;13.53;;;2.40;92.00;;;1.78;93.97;98255.63;5084956;28;20582;-72
2023/12/07 02:33:17;;;;;;;21.07;14.67;;;2.40;91.70;;;1.73;94.44;98256.09;5080484;28;20453;-70
2023/12/07 02:35:44;;;;;;;22.70;13.80;;;2.40;91.40;;;1.67;94.36;98257.53;5075531;28;20464;-69
2023/12/07 02:38:12;;;;;;;18.60;13.00;;;2.40;91.50;;;1.58;94.60;98258.44;5076455;28;20992;-69
2023/12/07 02:40:41;;;;;;;16.33;11.93;;;2.30;91.20;;;1.45;95.12;98255.34;5071737;28;20925;-67
2023/12/07 02:43:09;;;;;;;20.43;14.00;;;2.20;91.40;;;1.54;95.49;98251.75;5083430;28;20959;-69
2023/12/07 02:45:37;;;;;;;20.03;14.90;;;2.20;91.50;;;1.22;95.22;98221.16;5073540;28;20492;-70
2023/12/07 02:48:06;;;;;;;18.47;13.80;;;2.20;91.40;;;1.47;95.54;98256.03;5084688;28;20540;-69
2023/12/07 02:50:33;;;;;;;20.00;13.17;;;2.20;91.70;;;1.49;94.72;98246.03;5082677;28;20448;-70
2023/12/07 02:53:00;;;;;;;22.27;14.10;;;2.20;91.60;;;1.56;95.03;98252.44;5076512;28;20462;-70
2023/12/07 02:55:28;;;;;;;17.77;13.33;;;2.30;91.70;;;1.72;94.26;98245.56;5079301;28;20460;-70
2023/12/07 02:57:55;;;;;;;22.63;14.33;;;2.40;91.60;;;1.41;95.34;98263.59;5080814;28;20444;-70
2023/12/07 03:00:22;;;;;;;16.77;13.27;;;2.30;91.10;;;1.60;94.63;98268.94;5085212;28;20490;-71
2023/12/07 03:02:52;;;;;;;18.87;13.10;;;2.30;91.30;;;1.40;95.15;98272.59;5079752;28;20458;-72
2023/12/07 03:05:20;;;;;;;18.17;12.83;;;2.30;91.00;;;1.50;95.02;98271.69;5088386;28;20482;-71
2023/12/07 03:07:48;;;;;;;18.37;14.03;;;2.30;91.40;;;1.57;95.29;98264.75;5083262;28;20960;-70
2023/12/07 03:10:15;;;;;;;19.00;13.50;;;2.30;91.40;;;1.60;95.04;98266.28;5083683;28;20463;-70
2023/12/07 03:12:43;;;;;;;19.83;12.90;;;2.40;91.50;;;1.37;95.18;98262.25;5079462;28;20545;-70
2023/12/07 03:15:10;;;;;;;19.50;14.17;;;2.30;91.10;;;1.51;95.56;98270.69;5088294;28;20481;-71
2023/12/07 03:17:38;;;;;;;16.67;13.43;;;2.30;91.40;;;1.46;96.23;98273.00;5084514;28;20452;-70
2023/12/07 03:20:10;;;;;;;21.00;13.60;;;2.20;91.30;;;1.35;95.63;98264.22;5087585;28;20566;-70
2023/12/07 03:22:38;;;;;;;17.93;13.23;;;2.20;91.50;;;1.20;96.02;98277.19;5079042;28;20445;-69
2023/12/07 03:25:05;;;;;;;17.90;13.47;;;2.10;91.30;;;1.31;95.84;98277.97;5087597;28;20444;-70
2023/12/07 03:27:33;;;;;;;17.30;13.17;;;2.20;91.60;;;1.36;96.07;98278.34;5091007;28;20486;-71
2023/12/07 03:30:00;;;;;;;20.90;12.87;;;2.10;91.70;;;1.22;96.55;98282.38;5095168;28;20509;-70
2023/12/07 03:32:28;;;;;;;17.13;14.20;;;2.10;91.80;;;1.22;97.12;98279.72;5077271;28;20601;-70
2023/12/07 03:34:55;;;;;;;19.30;13.30;;;2.00;91.90;;;1.04;97.50;98272.53;5100585;28;20531;-71
2023/12/07 03:37:23;;;;;;;18.07;13.83;;;2.00;92.00;;;1.22;96.98;98285.88;5083270;28;20789;-70
2023/12/07 03:39:52;;;;;;;21.03;14.00;;;1.90;92.50;;;1.09;97.62;98286.22;5084173;28;20554;-70
2023/12/07 03:42:19;;;;;;;20.20;13.90;;;1.90;92.60;;;1.16;97.63;98286.47;5079416;28;20468;-68
2023/12/07 03:44:46;;;;;;;19.27;13.17;;;1.90;93.30;;;1.11;98.34;98289.56;5076361;28;20450;-70
2023/12/07 03:47:14;;;;;;;22.63;14.10;;;1.90;93.30;;;1.06;97.95;98275.03;5080988;28;20464;-70
2023/12/07 03:49:41;;;;;;;19.73;13.83;;;1.90;93.50;;;1.11;98.12;98289.56;5085211;28;20446;-70
2023/12/07 03:52:09;;;;;;;19.80;14.77;;;1.90;93.60;;;1.12;97.98;98279.78;5087034;28;20485;-71
2023/12/07 03:54:38;;;;;;;22.47;16.10;;;1.90;93.70;;;1.27;98.41;98293.41;5084305;28;21014;-74
2023/12/07 03:57:06;;;;;;;22.33;14.40;;;1.90;94.30;;;1.23;97.58;98292.03;5080595;28;21409;-73
2023/12/07 03:59:36;;;;;;;23.23;14.70;;;1.90;93.60;;;1.22;97.94;98290.34;5084916;28;20466;-73
2023/12/07 04:02:04;;;;;;;21.53;15.00;;;1.90;93.70;;;1.11;97.70;98283.41;5078091;28;20472;-72
2023/12/07 04:04:32;;;;;;;22.23;14.90;;;1.80;93.50;;;1.14;98.16;98293.75;5096825;28;20879;-73
2023/12/07 04:06:59;;;;;;;21.40;15.50;;;1.80;93.90;;;1.00;98.89;98295.09;5083081;28;20447;-73
2023/12/07 04:09:26;;;;;;;25.03;16.77;;;1.70;94.00;;;0.41;98.92;98223.53;5078980;28;20474;-73
2023/12/07 04:11:56;;;;;;;26.20;16.70;;;1.60;93.90;;;0.81;100.00;98296.84;5092359;28;20448;-75
2023/12/07 04:14:23;;;;;;;23.57;15.80;;;1.60;94.50;;;0.83;100.00;98302.88;5107428;27;20435;-73
2023/12/07 04:16:50;;;;;;;25.00;16.10;;;1.60;95.10;;;0.79;100.00;98305.97;5083023;28;20473;-72
2023/12/07 04:19:18;;;;;;;27.63;17.20;;;1.60;95.50;;;0.89;100.00;98304.09;5084190;28;20795;-74
2023/12/07 04:21:45;;;;;;;23.63;16.80;;;1.60;96.30;;;0.79;100.00;98301.47;5078470;28;20789;-77
2023/12/07 04:24:12;;;;;;;24.60;16.80;;;1.60;96.20;;;0.85;100.00;98310.69;5084306;28;20449;-74
2023/12/07 04:26:40;;;;;;;26.90;16.33;;;1.60;96.80;;;0.84;100.00;98309.88;5081079;28;20468;-73
2023/12/07 04:29:09;;;;;;;23.30;16.13;;;1.60;96.80;;;0.60;100.00;98272.28;5082023;28;20453;-74
2023/12/07 04:31:37;;;;;;;26.63;17.23;;;1.50;96.80;;;0.77;100.00;98311.44;5075415;28;20444;-73
2023/12/07 04:34:04;;;;;;;29.13;17.93;;;1.50;96.90;;;0.75;100.00;98312.53;5081452;28;20775;-76
2023/12/07 04:36:31;;;;;;;26.40;17.20;;;1.50;97.20;;;0.75;100.00;98309.88;5077221;28;20462;-74
2023/12/07 04:38:59;;;;;;;27.73;18.50;;;1.50;97.60;;;0.81;100.00;98312.81;5082947;28;20459;-74
2023/12/07 04:41:26;;;;;;;29.63;17.60;;;1.50;98.00;;;0.77;100.00;98313.25;5080616;28;20487;-75
2023/12/07 04:43:54;;;;;;;25.30;16.77;;;1.50;98.00;;;0.79;100.00;98317.44;5105155;28;20452;-73
2023/12/07 04:46:23;;;;;;;27.50;18.27;;;1.40;98.10;;;0.79;100.00;98322.75;5087899;28;20464;-74
2023/12/07 04:48:51;;;;;;;27.20;18.43;;;1.50;98.60;;;0.83;100.00;98321.50;5088816;28;20455;-73
2023/12/07 04:51:18;;;;;;;29.87;18.90;;;1.50;98.60;;;0.75;100.00;98324.03;5083157;28;20629;-75
2023/12/07 04:53:48;;;;;;;28.90;18.67;;;1.50;98.70;;;0.73;100.00;98317.19;5104157;27;20606;-73
2023/12/07 04:56:15;;;;;;;26.43;18.17;;;1.50;99.00;;;0.92;100.00;98321.59;5084333;28;20460;-74
2023/12/07 04:58:45;;;;;;;27.23;18.60;;;1.50;99.70;;;0.84;100.00;98322.31;5082875;28;21228;-72
2023/12/07 05:01:12;;;;;;;29.00;19.17;;;1.50;99.10;;;0.65;100.00;98312.59;5073788;28;20584;-74
2023/12/07 05:03:40;;;;;;;30.07;19.40;;;1.40;98.80;;;0.68;100.00;98326.44;5086081;28;20464;-73
2023/12/07 05:06:08;;;;;;;36.97;19.90;;;1.40;98.70;;;0.39;100.00;98258.22;5086436;28;20448;-75
2023/12/07 05:08:35;;;;;;;27.20;18.17;;;1.40;99.50;;;0.68;100.00;98326.44;5083839;28;21084;-74
2023/12/07 05:11:03;;;;;;;30.20;19.93;;;1.40;99.00;;;0.62;100.00;98331.50;5083423;28;20453;-74
2023/12/07 05:13:33;;;;;;;29.57;19.23;;;1.20;98.60;;;0.62;100.00;98321.72;5083700;28;20905;-74
2023/12/07 05:16:01;;;;;;;27.57;19.40;;;1.20;99.20;;;0.54;100.00;98314.44;5094011;28;20470;-72
2023/12/07 05:18:28;;;;;;;28.67;18.90;;;1.20;99.10;;;0.33;100.00;98327.94;5088568;28;20541;-74
2023/12/07 05:20:57;;;;;;;32.23;19.27;;;1.00;98.20;;;0.24;100.00;98319.00;5086325;28;20472;-75
2023/12/07 05:23:25;;;;;;;30.57;19.40;;;0.90;98.50;;;0.31;100.00;98329.03;5083770;28;20460;-74
2023/12/07 05:25:53;;;;;;;33.70;19.70;;;0.80;99.20;;;0.20;100.00;98330.84;5084008;28;20458;-74
2023/12/07 05:28:20;;;;;;;28.53;18.60;;;0.80;99.30;;;0.07;100.00;98330.31;5081697;28;20512;-75
2023/12/07 05:30:48;;;;;;;35.30;21.57;;;0.70;98.90;;;0.05;100.00;98325.16;5083960;28;20456;-74
2023/12/07 05:33:16;;;;;;;27.40;19.07;;;0.70;99.50;;;-0.01;100.00;98333.66;5087194;28;20440;-73
2023/12/07 05:35:44;;;;;;;32.87;19.70;;;0.60;99.50;;;0.08;100.00;98339.97;5079283;28;20511;-74
2023/12/07 05:38:12;;;;;;;35.30;21.13;;;0.70;99.90;;;-0.17;100.00;98343.03;5084809;28;20979;-70
2023/12/07 05:40:41;;;;;;;33.93;20.57;;;0.60;99.00;;;-0.27;100.00;98349.31;5087105;28;20956;-71
2023/12/07 05:43:08;;;;;;;36.80;21.30;;;0.50;99.10;;;-0.24;100.00;98344.56;5100310;28;20448;-69
2023/12/07 05:45:36;;;;;;;35.70;23.17;;;0.40;99.90;;;-0.20;100.00;98343.31;5084529;28;20467;-70
2023/12/07 05:48:03;;;;;;;32.07;19.53;;;0.50;99.90;;;-0.16;100.00;98350.00;5093711;28;20449;-70
2023/12/07 05:50:31;;;;;;;34.73;21.30;;;0.40;99.90;;;-0.13;100.00;98354.22;5085142;28;20463;-69
2023/12/07 05:52:59;;;;;;;34.33;22.27;;;0.50;99.90;;;-0.13;100.00;98354.22;5084511;28;20461;-69
2023/12/07 05:55:28;;;;;;;35.60;22.80;;;0.40;99.90;;;-0.24;100.00;98359.66;5075932;28;20457;-71
2023/12/07 05:57:56;;;;;;;36.40;21.67;;;0.40;99.90;;;-0.35;100.00;98357.97;5076891;28;20539;-69
2023/12/07 06:00:23;;;;;;;34.83;22.27;;;0.30;99.90;;;-0.36;100.00;98356.28;5061637;28;20486;-71
2023/12/07 06:02:52;;;;;;;33.77;21.30;;;0.30;99.90;;;-0.55;100.00;98339.34;5085471;28;20451;-70
2023/12/07 06:05:19;;;;;;;37.20;23.27;;;0.20;99.90;;;-0.48;100.00;98366.19;5078167;28;20455;-70
2023/12/07 06:07:46;;;;;;;40.80;21.97;;;0.10;99.90;;;-0.53;100.00;98365.75;5091948;28;20457;-69
2023/12/07 06:10:14;;;;;;;40.43;24.97;;;0.10;99.90;;;-0.65;100.00;98370.34;5082804;28;20462;-68
2023/12/07 06:12:43;;;;;;;36.50;23.63;;;0.00;99.90;;;-0.67;100.00;98361.69;5096465;27;20509;-70
2023/12/07 06:15:10;;;;;;;35.33;22.63;;;0.00;99.90;;;-0.50;100.00;98352.22;5079762;28;20456;-68
2023/12/07 06:17:38;;;;;;;41.90;22.20;;;0.10;99.90;;;-0.53;100.00;98340.06;5077998;28;20460;-80
2023/12/07 06:20:07;;;;;;;39.87;22.70;;;0.20;99.90;;;-0.17;100.00;98368.75;5086765;28;20449;-75
2023/12/07 06:22:35;;;;;;;39.40;23.87;;;0.40;99.90;;;-0.15;100.00;98372.13;5081583;28;20467;-74
2023/12/07 06:25:02;;;;;;;40.60;23.70;;;0.40;99.90;;;-0.27;100.00;98363.44;5087732;28;20947;-79
2023/12/07 06:27:30;;;;;;;39.67;22.97;;;0.30;99.90;;;-0.34;100.00;98360.50;5085260;28;20502;-77
2023/12/07 06:29:59;;;;;;;46.77;25.40;;;0.30;99.90;;;-0.45;100.00;98372.09;5084223;28;20449;-73
2023/12/07 06:32:26;;;;;;;44.77;24.00;;;0.10;99.90;;;-0.52;100.00;98370.94;5083843;28;20456;-78
2023/12/07 06:34:54;;;;;;;38.67;23.80;;;0.10;99.90;;;-0.58;100.00;98364.34;5078858;28;20506;-74
2023/12/07 06:37:21;;;;;;;37.13;23.27;;;0.10;99.90;;;-0.46;100.00;98377.53;5076292;28;20733;-79
2023/12/07 06:39:49;;;;;;;40.83;25.00;;;0.10;99.90;;;-0.36;100.00;98386.34;5082085;28;20451;-78
2023/12/07 06:42:16;;;;;;;36.60;23.43;;;0.20;99.90;;;-0.31;100.00;98380.59;5075885;28;20480;-79
2023/12/07 06:44:47;;;;;;;40.10;25.43;;;0.20;99.90;;;-0.40;100.00;98360.22;5076543;28;20960;-76
2023/12/07 06:47:16;;;;;;;40.97;25.00;;;0.20;99.90;;;-0.27;100.00;98375.88;5079120;28;20452;-76
2023/12/07 06:49:43;;;;;;;39.90;24.50;;;0.30;99.90;;;-0.10;100.00;98380.50;5078417;28;20456;-74
2023/12/07 06:52:11;;;;;;;38.67;24.50;;;0.40;99.90;;;0.02;100.00;98383.03;5084070;28;20551;-75
2023/12/07 06:54:39;;;;;;;41.43;25.30;;;0.60;99.90;;;-0.06;100.00;98376.63;5084396;28;20547;-72
2023/12/07 06:57:06;;;;;;;40.33;24.10;;;0.50;99.90;;;-0.34;100.00;98360.50;5081083;28;20445;-77
2023/12/07 06:59:33;;;;;;;45.20;26.37;;;0.40;99.90;;;-0.16;100.00;98381.91;5082401;28;20471;-72
2023/12/07 07:02:00;;;;;;;45.97;24.83;;;0.40;99.90;;;-0.31;100.00;98368.19;5093722;28;21030;-79
2023/12/07 07:04:29;;;;;;;38.50;25.27;;;0.40;99.90;;;-0.17;100.00;98396.16;5098206;28;20485;-77
2023/12/07 07:06:57;;;;;;;47.20;26.00;;;0.40;99.90;;;-0.10;100.00;98399.09;5087434;28;20456;-80
2023/12/07 07:09:24;;;;;;;46.30;25.67;;;0.50;99.90;;;-0.08;100.00;98397.13;5080117;28;20531;-79
2023/12/07 07:11:53;;;;;;;44.30;26.93;;;0.50;99.90;;;-0.02;100.00;98393.09;5087051;28;20953;-77
2023/12/07 07:14:21;;;;;;;50.50;25.87;;;0.60;99.90;;;0.05;100.00;98401.34;5087402;28;20465;-81
2023/12/07 07:16:48;;;;;;;45.03;26.03;;;0.60;99.90;;;-0.29;100.00;98328.22;5077212;28;20846;-81
2023/12/07 07:19:16;;;;;;;45.20;27.67;;;0.70;99.90;;;-0.10;100.00;98345.97;5082808;28;20526;-79
2023/12/07 07:21:46;;;;;;;47.63;27.87;;;0.90;99.90;;;0.42;100.00;98398.84;5096735;28;20472;-81
2023/12/07 07:24:13;;;;;;;44.87;26.70;;;1.00;99.90;;;0.47;100.00;98409.06;5080565;28;20853;-78
2023/12/07 07:26:40;;;;;;;43.63;26.40;;;1.10;99.90;;;0.61;100.00;98404.28;5078153;28;20464;-77
2023/12/07 07:29:08;;;;;;;47.70;27.63;;;1.20;99.90;;;0.77;100.00;98417.84;5075795;28;20987;-77
2023/12/07 07:31:36;;;;;;;43.83;27.23;;;1.30;99.90;;;0.78;100.00;98416.84;5085052;28;20465;-76
2023/12/07 07:34:05;;;;;;;45.83;26.33;;;1.40;99.90;;;0.55;100.00;98398.56;5093125;28;20475;-81
2023/12/07 07:36:33;;;;;;;45.27;28.97;;;1.40;99.90;;;0.67;100.00;98404.56;5102711;28;20901;-73
2023/12/07 07:39:02;;;;;;;44.07;27.93;;;1.40;99.90;;;0.22;100.00;98331.56;5085818;28;20774;-82
2023/12/07 07:41:29;;;;;;;46.90;27.70;;;1.40;99.90;;;0.91;100.00;98416.56;5084424;28;20547;-83
2023/12/07 07:43:57;;;;;;;46.90;28.03;;;1.50;99.90;;;1.07;100.00;98399.16;5081965;28;20451;-82
2023/12/07 07:46:26;;;;;;;41.30;27.17;;;1.60;99.90;;;1.21;100.00;98405.81;5084178;28;20469;-77
2023/12/07 07:48:53;;;;;;;42.93;26.57;;;1.80;99.90;;;1.28;100.00;98412.22;5088241;28;20459;-83
2023/12/07 07:51:22;;;;;;;39.43;24.80;;;1.80;99.90;;;1.47;100.00;98416.63;5085710;28;20549;-81
2023/12/07 07:53:49;;;;;;;42.17;27.13;;;2.00;99.90;;;1.13;100.00;98330.16;5080011;28;20462;-82
2023/12/07 07:56:18;;;;;;;39.20;26.23;;;2.10;99.90;;;1.73;100.00;98415.09;5083033;28;20446;-79
2023/12/07 07:58:46;;;;;;;34.50;22.57;;;2.20;99.90;;;1.72;99.14;98408.09;5081339;28;20906;-82
2023/12/07 08:01:13;;;;;;;38.73;24.47;;;2.30;99.90;;;1.24;100.00;98402.84;5079711;28;20477;-79
2023/12/07 08:03:41;;;;;;;35.67;23.63;;;2.10;99.80;;;1.19;100.00;98410.44;5084245;28;20451;-77
2023/12/07 08:06:09;;;;;;;32.87;21.80;;;2.00;98.80;;;1.19;100.00;98407.78;5078638;28;21182;-82
2023/12/07 08:08:36;;;;;;;35.30;21.87;;;1.90;98.30;;;1.22;100.00;98408.34;5085922;28;20438;-81
2023/12/07 08:11:05;;;;;;;40.20;24.90;;;1.90;98.40;;;1.15;100.00;98415.22;5078604;28;20832;-83
2023/12/07 08:13:33;;;;;;;39.20;24.30;;;1.90;97.90;;;1.30;100.00;98407.59;5083624;28;20528;-80
2023/12/07 08:16:02;;;;;;;36.33;22.73;;;2.00;98.50;;;1.32;100.00;98404.78;5083050;28;20480;-72
2023/12/07 08:18:29;;;;;;;38.67;24.07;;;2.00;98.90;;;1.35;100.00;98410.66;5084697;28;20548;-75
2023/12/07 08:20:58;;;;;;;36.67;24.40;;;2.10;98.60;;;1.50;100.00;98410.19;5090580;28;20484;-82
2023/12/07 08:23:24;;;;;;;38.80;24.60;;;2.20;98.50;;;1.64;100.00;98422.16;5092879;28;20974;-80
2023/12/07 08:25:51;;;;;;;41.33;23.67;;;2.30;98.20;;;1.77;99.43;98406.66;5081123;28;20467;-77
2023/12/07 08:28:19;;;;;;;46.60;27.03;;;2.40;97.60;;;1.78;98.59;98412.84;5112275;28;20494;-70
2023/12/07 08:30:48;;;;;;;35.93;24.23;;;2.40;96.60;;;1.84;98.12;98423.75;5099911;28;20494;-77
2023/12/07 08:33:15;;;;;;;41.27;26.17;;;2.50;95.90;;;2.07;97.25;98420.63;5100559;28;20537;-78
2023/12/07 08:35:42;;;;;;;38.03;24.13;;;2.60;95.90;;;1.73;96.88;98425.75;5088049;28;20458;-80
2023/12/07 08:38:09;;;;;;;37.07;22.13;;;2.50;93.90;;;1.77;98.22;98421.81;5091253;28;20450;-78
2023/12/07 08:40:37;;;;;;;38.40;23.47;;;2.50;94.00;;;0.54;97.44;98282.53;5090921;28;20457;-81
2023/12/07 08:43:05;;;;;;;35.07;22.07;;;2.40;93.00;;;1.42;98.14;98425.06;5084884;28;20989;-81
2023/12/07 08:45:32;;;;;;;36.27;23.60;;;2.30;93.30;;;1.46;98.19;98425.59;5082820;28;20802;-78
2023/12/07 08:48:02;;;;;;;38.20;24.60;;;2.30;93.50;;;1.57;97.76;98427.22;5082735;28;20964;-80
2023/12/07 08:50:29;;;;;;;36.97;23.03;;;2.30;93.70;;;1.15;97.68;98348.66;5091965;28;20525;-81
2023/12/07 08:52:57;;;;;;;38.83;24.80;;;2.40;93.90;;;1.94;96.49;98426.34;5085272;28;20944;-76
2023/12/07 08:55:24;;;;;;;33.10;22.83;;;2.60;93.80;;;1.92;95.41;98424.81;5107051;27;20495;-80
2023/12/07 08:57:53;;;;;;;38.67;23.93;;;2.70;93.00;;;2.20;95.87;98422.94;5081507;28;20463;-78
2023/12/07 09:00:23;;;;;;;37.00;23.23;;;2.80;92.70;;;2.66;93.10;98432.69;5090782;28;20449;-69
2023/12/07 09:02:51;;;;;;;36.40;22.83;;;3.10;92.20;;;2.60;92.31;98441.28;5085103;28;20501;-68
2023/12/07 09:05:20;;;;;;;34.27;22.90;;;3.20;90.80;;;2.52;91.82;98434.91;5085268;28;20542;-71
2023/12/07 09:07:48;;;;;;;37.90;23.43;;;3.30;90.10;;;2.55;91.91;98437.25;5087850;28;20449;-68
2023/12/07 09:10:15;;;;;;;31.50;20.97;;;3.30;89.80;;;2.65;90.24;98436.31;5093113;28;20449;-69
2023/12/07 09:12:42;;;;;;;29.67;21.57;;;3.40;88.50;;;2.64;89.85;98423.97;5085408;28;20458;-68
2023/12/07 09:15:12;;;;;;;31.60;21.93;;;3.40;87.90;;;2.78;90.19;98426.06;5088628;28;20461;-69
2023/12/07 09:17:39;;;;;;;31.63;20.00;;;3.40;88.10;;;2.75;89.21;98431.72;5084336;28;20469;-69
2023/12/07 09:20:11;;;;;;;31.63;21.33;;;3.40;87.40;;;2.94;89.65;98432.53;5079863;28;20571;-70
2023/12/07 09:22:43;;;;;;;29.57;21.90;;;3.50;88.10;;;2.54;90.00;98430.25;5080265;28;20486;-71
2023/12/07 09:25:10;;;;;;;32.37;21.77;;;3.40;87.00;;;2.71;89.56;98425.03;5087664;28;20451;-69
2023/12/07 09:27:39;;;;;;;37.63;23.73;;;3.40;87.30;;;2.51;88.08;98377.22;5087280;28;20453;-70
2023/12/07 09:30:10;;;;;;;33.50;21.00;;;3.40;87.20;;;2.57;89.81;98434.41;5088701;28;20452;-69
2023/12/07 09:32:38;;;;;;;29.90;20.90;;;3.30;87.10;;;2.63;89.90;98432.97;5084942;28;20954;-69
2023/12/07 09:35:07;;;;;;;32.27;24.50;;;3.30;87.50;;;2.55;90.21;98436.41;5081750;28;21356;-70
2023/12/07 09:37:35;;;;;;;32.17;22.03;;;3.30;87.30;;;2.25;89.51;98399.31;5080755;28;20558;-72
2023/12/07 09:40:07;;;;;;;32.10;22.10;;;3.30;87.10;;;2.53;89.70;98428.56;5080252;28;20543;-70
2023/12/07 09:42:35;;;;;;;32.67;22.70;;;3.20;87.40;;;2.80;88.94;98421.41;5086656;28;20539;-71
2023/12/07 09:45:02;;;;;;;32.93;21.87;;;3.40;87.60;;;2.86;88.93;98427.97;5080838;28;20914;-80
2023/12/07 09:47:32;;;;;;;32.50;22.90;;;3.50;87.40;;;3.11;88.24;98399.63;5082066;28;20453;-79
2023/12/07 09:49:59;;;;;;;32.70;22.00;;;3.80;87.60;;;3.65;85.11;98427.91;5086778;28;20506;-78
2023/12/07 09:52:27;;;;;;;27.97;20.63;;;4.00;86.30;;;3.51;84.96;98420.50;5088866;28;20463;-70
2023/12/07 09:54:57;;;;;;;29.83;20.70;;;4.10;84.90;;;3.30;84.35;98378.16;5104190;27;20494;-73
2023/12/07 09:57:27;;;;;;;34.20;21.70;;;4.30;84.50;;;3.62;85.05;98420.22;5079674;28;20464;-75
2023/12/07 09:59:54;;;;;;;29.30;20.93;;;4.30;84.20;;;3.66;84.29;98416.22;5086975;28;20455;-74
2023/12/07 10:02:21;;;;;;;30.80;22.23;;;4.30;84.20;;;4.14;83.02;98410.34;5085234;28;20481;-73
2023/12/07 10:05:05;;;;;;;28.03;20.57;;;4.50;84.50;;;4.34;80.64;98400.16;5090950;27;20462;-74
2023/12/07 10:07:35;;;;;;;29.47;20.00;;;4.70;83.40;;;4.04;80.82;98409.66;5073509;28;20487;-75
2023/12/07 10:10:03;;;;;;;27.60;21.07;;;4.70;82.20;;;3.81;81.88;98400.41;5082293;28;20511;-74
2023/12/07 10:12:33;;;;;;;29.80;20.20;;;4.60;82.20;;;4.04;81.72;98397.13;5083277;28;20452;-75
2023/12/07 10:15:06;;;;;;;30.63;20.50;;;4.60;82.50;;;3.86;82.45;98391.06;5079698;28;20475;-73
2023/12/07 10:17:50;;;;;;;30.50;20.93;;;4.50;82.30;;;3.66;82.87;98396.69;5084631;28;20563;-74